Time;durP1;ratioP1;P1;durP2;ratioP2;P2;SDS_P1;SDS_P2;PMS_P1;PMS_P2;Temp;Humidity;BMP_temperature;BMP_pressure;BME280_temperature;BME280_humidity;BME280_pressure;Samples;Min_cycle;Max_cycle;Signal;HPM_P1;HPM_P2
2022/10/31 07:04:56;;;;;;;5.65;2.42;;;;;;;8.92;94.37;99953.17;1774906;79;21078;-38
2022/10/31 07:07:25;;;;;;;4.90;2.40;;;;;;;8.99;94.29;99942.34;1753029;80;21052;-38
2022/10/31 07:09:53;;;;;;;4.50;2.62;;;;;;;9.04;93.98;99948.00;1784357;79;21063;-38
2022/10/31 07:12:21;;;;;;;10.70;4.28;;;;;;;9.11;92.81;99953.22;1771958;80;21045;-38
2022/10/31 07:14:50;;;;;;;10.05;2.30;;;;;;;9.18;92.40;99943.20;1771793;79;21083;-47
2022/10/31 07:17:17;;;;;;;7.17;3.00;;;;;;;9.24;90.65;99955.81;1769911;79;20995;-47
2022/10/31 07:19:44;;;;;;;6.97;2.58;;;;;;;9.25;89.33;99952.33;1779051;78;21000;-39
2022/10/31 07:22:12;;;;;;;5.17;2.30;;;;;;;9.24;89.39;99953.20;1717696;82;21035;-42
2022/10/31 07:24:39;;;;;;;3.75;2.27;;;;;;;9.35;89.75;99960.17;1735310;81;21457;-39
2022/10/31 07:27:07;;;;;;;4.70;2.00;;;;;;;9.44;87.49;99971.47;1781761;80;21548;-48
2022/10/31 07:29:35;;;;;;;6.62;2.27;;;;;;;9.49;86.55;99971.47;1781524;79;21051;-39
2022/10/31 07:32:01;;;;;;;7.30;2.42;;;;;;;9.54;84.35;99981.04;1774970;81;21448;-47
2022/10/31 07:34:29;;;;;;;9.08;2.47;;;;;;;9.60;83.17;99981.03;1775431;79;21030;-46
2022/10/31 07:37:06;;;;;;;4.53;1.90;;;;;;;9.60;82.98;99979.72;1777093;80;21000;-39
2022/10/31 07:39:33;;;;;;;3.17;1.70;;;;;;;9.58;81.05;99976.26;1779110;79;21467;-47
2022/10/31 07:42:01;;;;;;;2.90;2.10;;;;;;;9.63;77.88;99985.41;1777678;80;21470;-47
2022/10/31 07:44:28;;;;;;;6.78;2.02;;;;;;;9.70;78.04;99976.67;1778407;79;21102;-47
2022/10/31 07:47:13;;;;;;;3.83;1.50;;;;;;;9.79;77.22;99987.53;1772627;80;21055;-47
2022/10/31 07:49:58;;;;;;;3.67;1.90;;;;;;;9.82;76.77;99984.48;1778396;80;21083;-46
2022/10/31 07:52:43;;;;;;;2.50;2.20;;;;;;;9.92;77.00;99985.35;1775146;79;21541;-38
2022/10/31 07:55:28;;;;;;;3.40;1.77;;;;;;;10.05;76.09;99992.72;1776110;80;21008;-40
2022/10/31 07:58:05;;;;;;;9.68;2.22;;;;;;;10.11;75.12;100003.16;1775219;79;21032;-39
2022/10/31 08:00:35;;;;;;;4.78;1.60;;;;;;;10.04;72.25;100011.89;1779575;79;21084;-47
2022/10/31 08:03:10;;;;;;;4.08;1.65;;;;;;;9.86;69.94;100002.35;1776715;79;21575;-47
2022/10/31 08:05:44;;;;;;;4.22;1.30;;;;;;;9.74;69.99;100006.27;1745224;80;21049;-47
2022/10/31 08:08:13;;;;;;;8.60;1.42;;;;;;;9.68;68.70;100033.25;1772508;80;21060;-48
2022/10/31 08:10:40;;;;;;;2.12;0.90;;;;;;;9.70;65.33;100031.53;1769402;80;21040;-39
2022/10/31 08:13:13;;;;;;;2.65;0.80;;;;;;;9.76;59.36;100018.91;1773200;80;21112;-39
2022/10/31 08:15:41;;;;;;;1.12;0.57;;;;;;;9.78;54.54;100043.28;1769239;79;21476;-41
2022/10/31 08:18:14;;;;;;;1.12;0.30;;;;;;;9.75;49.75;100053.75;1769601;80;21104;-40
2022/10/31 08:20:43;;;;;;;2.95;0.60;;;;;;;9.68;48.68;100052.84;1771696;80;21004;-47
2022/10/31 08:23:10;;;;;;;3.15;0.50;;;;;;;9.64;47.79;100042.42;1777661;79;21060;-39
2022/10/31 08:25:38;;;;;;;0.60;0.40;;;;;;;9.63;48.08;100060.28;1773783;80;21019;-39
2022/10/31 08:28:06;;;;;;;4.03;0.60;;;;;;;9.64;48.87;100068.55;1775848;79;21560;-53
2022/10/31 08:30:35;;;;;;;1.65;0.30;;;;;;;9.64;48.00;100060.71;1772519;80;21631;-46
2022/10/31 08:33:15;;;;;;;2.05;0.70;;;;;;;9.64;48.26;100058.97;1732947;81;21511;-47
2022/10/31 08:36:01;;;;;;;2.33;0.88;;;;;;;9.62;48.03;100072.44;1757433;80;21425;-46
2022/10/31 08:38:48;;;;;;;1.12;0.50;;;;;;;9.58;48.13;100078.12;1769413;80;21048;-45
2022/10/31 08:41:17;;;;;;;2.50;0.50;;;;;;;9.57;48.81;100072.91;1769239;80;21379;-46
2022/10/31 08:43:44;;;;;;;1.95;0.65;;;;;;;9.59;48.98;100087.69;1774121;79;21142;-47
2022/10/31 08:46:11;;;;;;;1.05;0.40;;;;;;;9.64;49.36;100084.22;1775840;80;20958;-47
2022/10/31 08:48:40;;;;;;;0.82;0.42;;;;;;;9.67;49.47;100095.52;1768367;80;21063;-47
2022/10/31 08:51:07;;;;;;;0.75;0.50;;;;;;;9.70;48.16;100080.30;1770811;80;20982;-37
2022/10/31 08:53:33;;;;;;;0.85;0.33;;;;;;;9.67;48.31;100093.34;1733973;81;21040;-47
2022/10/31 08:56:02;;;;;;;3.98;0.75;;;;;;;9.68;45.74;100109.02;1753756;80;20977;-47
2022/10/31 08:58:29;;;;;;;1.98;0.60;;;;;;;9.71;46.74;100097.71;1785562;79;21040;-39
2022/10/31 09:00:59;;;;;;;1.27;0.50;;;;;;;9.76;46.32;100105.13;1777423;80;21050;-39
2022/10/31 09:03:30;;;;;;;2.30;0.50;;;;;;;9.78;45.69;100105.55;1775820;79;21040;-39
2022/10/31 09:06:00;;;;;;;2.15;0.85;;;;;;;9.74;46.14;100096.39;1774124;80;20972;-39
2022/10/31 09:08:29;;;;;;;5.80;0.90;;;;;;;9.76;47.78;100099.90;1773505;80;21088;-40
2022/10/31 09:10:58;;;;;;;3.58;0.60;;;;;;;9.85;48.13;100107.72;1774756;80;21535;-38
2022/10/31 09:13:32;;;;;;;0.80;0.50;;;;;;;9.91;47.62;100109.02;1761966;79;21080;-39
2022/10/31 09:16:16;;;;;;;0.60;0.45;;;;;;;9.90;47.02;100105.98;1766749;80;21472;-39
2022/10/31 09:18:45;;;;;;;6.60;0.57;;;;;;;9.89;46.49;100106.86;1770380;80;21551;-39
2022/10/31 09:21:12;;;;;;;4.37;0.70;;;;;;;9.85;46.00;100096.83;1769294;80;20984;-39
2022/10/31 09:23:38;;;;;;;0.68;0.50;;;;;;;9.80;44.97;100097.73;1775506;79;21834;-40
2022/10/31 09:26:06;;;;;;;1.37;0.85;;;;;;;9.72;45.19;100075.94;1778112;79;21465;-46
2022/10/31 09:28:32;;;;;;;1.02;0.40;;;;;;;9.66;45.02;100106.84;1774380;79;21040;-39
2022/10/31 09:31:01;;;;;;;1.02;0.40;;;;;;;9.63;45.48;100104.69;1772402;79;21024;-47
2022/10/31 09:33:29;;;;;;;1.37;0.57;;;;;;;9.63;45.98;100106.86;1776641;80;21052;-39
2022/10/31 09:35:58;;;;;;;3.22;0.78;;;;;;;9.65;47.00;100098.58;1772702;81;20972;-39
2022/10/31 09:38:25;;;;;;;0.98;0.50;;;;;;;9.69;46.95;100111.22;1775638;79;21009;-40
2022/10/31 09:41:16;;;;;;;0.93;0.40;;;;;;;9.71;48.22;100111.64;1772686;80;21012;-39
2022/10/31 09:44:03;;;;;;;1.25;0.40;;;;;;;9.75;47.39;100099.03;1731493;81;21745;-48
2022/10/31 09:46:56;;;;;;;0.95;0.50;;;;;;;9.83;47.79;100109.03;1736858;81;20989;-48
2022/10/31 09:49:34;;;;;;;3.92;0.80;;;;;;;9.98;47.50;100115.14;1708462;81;21594;-39
2022/10/31 09:52:22;;;;;;;3.27;0.65;;;;;;;10.16;46.61;100102.05;1715252;82;20979;-38
2022/10/31 09:54:57;;;;;;;1.60;0.62;;;;;;;10.33;42.44;100097.70;1712132;83;21547;-39
2022/10/31 09:57:30;;;;;;;1.60;0.70;;;;;;;10.48;43.16;100100.70;1690590;83;21028;-45
2022/10/31 09:59:57;;;;;;;4.17;1.02;;;;;;;10.70;42.49;100101.50;1670596;83;21073;-46
2022/10/31 10:02:51;;;;;;;1.67;0.57;;;;;;;11.00;42.54;100120.58;1692896;83;20990;-38
2022/10/31 10:05:26;;;;;;;5.28;0.78;;;;;;;11.34;42.83;100109.48;1683922;84;21007;-40
2022/10/31 10:08:20;;;;;;;1.02;0.65;;;;;;;11.75;41.07;100118.81;1688472;84;21153;-47
2022/10/31 10:11:57;;;;;;;0.65;0.50;;;;;;;11.93;40.62;100110.39;1683413;84;21018;-48
2022/10/31 10:14:43;;;;;;;2.58;0.53;;;;;;;12.01;40.28;100116.03;1720389;82;21151;-46
2022/10/31 10:17:36;;;;;;;3.02;0.50;;;;;;;12.16;39.71;100121.13;1725901;81;21041;-47
2022/10/31 10:20:18;;;;;;;1.62;0.42;;;;;;;12.28;36.77;100126.70;1718330;81;21524;-40
2022/10/31 10:23:03;;;;;;;3.40;0.45;;;;;;;12.42;35.41;100136.18;1707139;81;21023;-38
2022/10/31 10:25:40;;;;;;;1.75;0.60;;;;;;;12.44;34.98;100122.59;1735261;82;21024;-40
2022/10/31 10:28:22;;;;;;;0.60;0.40;;;;;;;12.52;35.10;100136.94;1723569;82;21059;-48
2022/10/31 10:30:57;;;;;;;0.72;0.50;;;;;;;12.63;34.67;100136.83;1729023;82;21060;-40
2022/10/31 10:33:31;;;;;;;1.25;0.50;;;;;;;12.77;35.33;100141.05;1726508;82;21590;-47
2022/10/31 10:36:16;;;;;;;0.93;0.50;;;;;;;12.93;34.88;100142.16;1718179;82;20989;-40
2022/10/31 10:38:55;;;;;;;1.07;0.57;;;;;;;13.04;34.60;100146.43;1724062;81;21057;-47
2022/10/31 10:41:23;;;;;;;3.12;0.55;;;;;;;13.22;34.16;100130.91;1759122;80;20985;-39
2022/10/31 10:43:51;;;;;;;0.30;0.30;;;;;;;13.49;34.24;100124.38;1783065;79;21665;-48
2022/10/31 10:49:31;;;;;;;0.47;0.40;;;;;;;14.01;32.63;100117.44;1777990;79;21895;-39
2022/10/31 10:52:19;;;;;;;1.02;0.30;;;;;;;14.18;31.09;100125.91;1777480;80;21403;-47
2022/10/31 10:55:20;;;;;;;0.88;0.42;;;;;;;14.20;31.46;100125.88;1784902;79;21039;-41
2022/10/31 10:58:03;;;;;;;1.67;0.65;;;;;;;14.19;31.97;100118.88;1789262;80;21008;-40
2022/10/31 11:00:34;;;;;;;3.12;0.60;;;;;;;14.28;32.08;100119.59;1785668;80;20988;-46
2022/10/31 11:03:00;;;;;;;1.10;0.65;;;;;;;14.43;32.17;100118.89;1778279;79;21525;-46
2022/10/31 11:06:01;;;;;;;0.95;0.60;;;;;;;14.56;31.90;100123.95;1775608;80;21039;-39
2022/10/31 11:08:35;;;;;;;3.85;0.68;;;;;;;14.69;32.08;100121.07;1773505;79;21107;-46
2022/10/31 11:11:29;;;;;;;1.85;0.90;;;;;;;14.74;32.13;100117.91;1783183;80;21521;-47
2022/10/31 11:14:03;;;;;;;2.92;0.72;;;;;;;14.92;32.16;100116.66;1775027;79;21041;-41
2022/10/31 11:16:36;;;;;;;2.35;0.33;;;;;;;15.09;30.07;100125.95;1774295;80;20989;-46
2022/10/31 11:19:21;;;;;;;0.53;0.25;;;;;;;14.95;28.25;100108.68;1777146;80;22255;-46
2022/10/31 11:21:49;;;;;;;0.30;0.30;;;;;;;14.56;28.26;100117.81;1776628;80;21009;-46
2022/10/31 11:24:21;;;;;;;8.40;0.57;;;;;;;14.23;28.58;100114.00;1752807;79;21027;-40
2022/10/31 11:26:49;;;;;;;1.12;0.50;;;;;;;14.03;28.72;100120.90;1781499;80;21564;-39
2022/10/31 11:29:24;;;;;;;1.45;0.50;;;;;;;13.93;29.39;100117.58;1770242;80;21103;-47
2022/10/31 11:31:57;;;;;;;0.75;0.30;;;;;;;13.98;28.83;100125.39;1768265;80;20985;-47
2022/10/31 11:34:29;;;;;;;1.45;0.20;;;;;;;13.85;29.11;100115.05;1767787;80;21103;-39
2022/10/31 11:37:03;;;;;;;1.32;0.60;;;;;;;13.73;29.29;100128.39;1768505;80;20973;-48
2022/10/31 11:39:31;;;;;;;0.85;0.40;;;;;;;13.60;28.79;100128.61;1768164;80;21115;-46
2022/10/31 11:42:00;;;;;;;1.27;0.40;;;;;;;13.35;29.29;100129.42;1769758;80;21005;-46
2022/10/31 11:44:29;;;;;;;0.40;0.40;;;;;;;13.15;30.08;100127.02;1772538;80;21135;-40
2022/10/31 11:47:02;;;;;;;0.72;0.55;;;;;;;13.00;30.85;100130.72;1769896;80;21040;-39
2022/10/31 11:49:46;;;;;;;1.42;0.50;;;;;;;12.77;31.27;100129.69;1769017;80;21052;-47
2022/10/31 11:52:31;;;;;;;2.40;0.72;;;;;;;12.67;32.01;100130.22;1771172;80;20988;-40
2022/10/31 11:55:06;;;;;;;0.95;0.60;;;;;;;12.74;31.83;100127.08;1769534;80;21705;-47
2022/10/31 11:57:46;;;;;;;2.10;0.60;;;;;;;12.83;31.91;100134.00;1721169;83;21027;-46
2022/10/31 12:00:38;;;;;;;0.72;0.40;;;;;;;12.93;31.96;100135.19;1709750;83;21042;-46
2022/10/31 12:03:25;;;;;;;0.72;0.45;;;;;;;13.05;30.93;100130.23;1700028;83;21051;-39
2022/10/31 12:05:57;;;;;;;0.90;0.50;;;;;;;12.97;31.40;100129.44;1711971;83;20979;-39
2022/10/31 12:08:23;;;;;;;3.12;0.50;;;;;;;12.72;31.59;100127.55;1718491;83;21141;-45
2022/10/31 12:10:58;;;;;;;0.78;0.50;;;;;;;12.58;31.85;100130.75;1689295;83;21081;-38
2022/10/31 12:13:38;;;;;;;3.67;0.60;;;;;;;12.49;32.36;100143.55;1697798;83;21179;-48
2022/10/31 12:16:34;;;;;;;0.62;0.45;;;;;;;12.47;32.36;100142.70;1724692;83;21011;-48
2022/10/31 12:19:24;;;;;;;0.98;0.42;;;;;;;12.25;30.99;100165.20;1716694;83;21201;-39
2022/10/31 12:22:30;;;;;;;1.02;0.42;;;;;;;11.85;32.01;100154.16;1717771;83;21583;-39
2022/10/31 12:25:08;;;;;;;0.70;0.57;;;;;;;11.66;32.01;100147.28;1704084;83;21187;-39
2022/10/31 12:28:07;;;;;;;1.40;0.40;;;;;;;11.64;31.65;100153.83;1702492;82;21880;-46
2022/10/31 12:31:00;;;;;;;0.55;0.30;;;;;;;11.70;32.18;100160.33;1687199;83;21064;-40
2022/10/31 12:34:01;;;;;;;2.00;0.37;;;;;;;11.83;32.45;100158.55;1639768;86;21148;-40
2022/10/31 12:36:55;;;;;;;0.77;0.37;;;;;;;12.09;32.08;100170.58;1718912;83;21071;-38
2022/10/31 12:39:51;;;;;;;1.60;0.50;;;;;;;12.63;32.11;100153.89;1719101;82;21102;-40
2022/10/31 12:42:46;;;;;;;1.90;0.98;;;;;;;13.07;32.28;100150.77;1661272;85;21071;-47
2022/10/31 12:45:18;;;;;;;2.00;0.60;;;;;;;13.36;31.60;100153.04;1657891;86;22539;-50
2022/10/31 12:47:56;;;;;;;1.45;0.50;;;;;;;13.26;31.49;100149.66;1628406;87;21100;-40
2022/10/31 12:50:54;;;;;;;2.12;0.60;;;;;;;13.03;31.54;100161.73;1620457;87;21141;-46
2022/10/31 12:53:50;;;;;;;1.67;0.82;;;;;;;12.67;31.84;100157.78;1665161;85;21588;-41
2022/10/31 12:56:48;;;;;;;0.93;0.47;;;;;;;12.25;32.50;100166.95;1666025;84;21547;-46
2022/10/31 12:59:23;;;;;;;1.02;0.60;;;;;;;11.77;32.50;100187.81;1676925;84;21159;-46
2022/10/31 13:02:15;;;;;;;4.80;0.78;;;;;;;11.43;32.95;100190.20;1676702;85;21056;-41
2022/10/31 13:04:55;;;;;;;1.45;0.62;;;;;;;11.43;32.36;100177.55;1639639;86;21073;-41
2022/10/31 13:07:29;;;;;;;1.55;0.78;;;;;;;11.63;31.91;100178.30;1641731;86;21423;-40
2022/10/31 13:10:08;;;;;;;1.72;0.70;;;;;;;11.61;32.11;100175.27;1644284;84;21149;-39
2022/10/31 13:12:35;;;;;;;1.10;0.60;;;;;;;11.40;32.55;100184.11;1681545;83;21899;-47
2022/10/31 13:15:25;;;;;;;4.47;0.90;;;;;;;11.19;33.01;100189.89;1696672;83;21600;-48
2022/10/31 13:17:56;;;;;;;2.90;0.70;;;;;;;11.09;33.22;100188.17;1716410;82;21557;-47
2022/10/31 13:20:31;;;;;;;1.27;0.80;;;;;;;11.14;33.44;100189.47;1742449;81;21046;-38
2022/10/31 13:23:12;;;;;;;4.50;0.82;;;;;;;11.32;33.58;100192.45;1749412;81;21086;-47
2022/10/31 13:25:43;;;;;;;1.40;0.80;;;;;;;11.46;33.53;100195.86;1717026;83;21037;-46
2022/10/31 13:28:24;;;;;;;2.58;1.00;;;;;;;11.65;33.83;100198.83;1723039;83;21593;-39
2022/10/31 13:30:50;;;;;;;2.25;0.90;;;;;;;11.81;33.63;100205.27;1696473;84;20995;-47
2022/10/31 13:33:31;;;;;;;2.55;1.05;;;;;;;11.73;34.13;100204.88;1704066;84;21158;-48
2022/10/31 13:36:23;;;;;;;2.35;0.80;;;;;;;11.60;34.54;100203.22;1706316;84;21003;-49
2022/10/31 13:39:01;;;;;;;1.80;0.75;;;;;;;11.68;34.84;100211.90;1706698;84;21106;-39
2022/10/31 13:41:42;;;;;;;2.47;0.60;;;;;;;11.78;34.79;100207.92;1712822;82;21908;-47
2022/10/31 13:44:26;;;;;;;1.42;0.85;;;;;;;11.61;35.32;100223.74;1714541;83;21114;-40
2022/10/31 13:46:54;;;;;;;4.37;0.98;;;;;;;11.64;35.58;100225.02;1700792;83;21105;-42
2022/10/31 13:49:32;;;;;;;0.98;0.75;;;;;;;11.89;34.99;100220.11;1715964;83;21094;-40
2022/10/31 13:52:14;;;;;;;2.75;1.12;;;;;;;12.06;34.31;100220.00;1712080;84;21037;-48
2022/10/31 13:54:48;;;;;;;1.62;0.80;;;;;;;12.24;34.18;100223.79;1685043;84;21088;-39
2022/10/31 13:57:42;;;;;;;2.40;1.40;;;;;;;12.33;33.98;100221.96;1695510;84;21474;-39
2022/10/31 14:00:23;;;;;;;2.55;0.80;;;;;;;12.25;34.26;100226.84;1695086;84;21922;-47
2022/10/31 14:02:52;;;;;;;4.15;0.78;;;;;;;12.07;34.70;100227.42;1697644;82;21111;-47
2022/10/31 14:05:33;;;;;;;2.22;0.98;;;;;;;11.87;35.04;100234.09;1685769;83;21897;-47
2022/10/31 14:08:03;;;;;;;1.90;0.95;;;;;;;11.74;35.50;100239.82;1731414;81;21083;-39
2022/10/31 14:10:33;;;;;;;2.55;1.07;;;;;;;11.57;35.39;100241.22;1734196;82;21058;-40
2022/10/31 14:13:37;;;;;;;2.40;0.98;;;;;;;11.37;35.97;100241.32;1718110;81;21036;-39
2022/10/31 14:16:08;;;;;;;3.00;1.25;;;;;;;11.21;36.31;100247.48;1691586;83;21011;-46
2022/10/31 14:18:38;;;;;;;10.28;1.67;;;;;;;11.03;36.91;100251.03;1726502;83;21062;-46
2022/10/31 14:21:28;;;;;;;3.27;1.20;;;;;;;10.95;37.03;100259.32;1769459;80;21027;-46
2022/10/31 14:23:55;;;;;;;2.33;1.17;;;;;;;10.90;37.31;100263.28;1769474;80;21025;-46
2022/10/31 14:26:32;;;;;;;3.60;2.08;;;;;;;10.86;37.50;100269.83;1768177;80;20973;-46
2022/10/31 14:33:19;;;;;;;4.30;1.60;;;;;;;10.48;37.66;100267.23;1774497;80;21131;-47
2022/10/31 14:36:06;;;;;;;3.05;1.22;;;;;;;10.01;38.09;100287.19;1754307;81;21004;-41
2022/10/31 14:38:40;;;;;;;4.17;1.40;;;;;;;9.75;38.72;100283.22;1754851;80;21051;-39
2022/10/31 14:41:20;;;;;;;2.22;1.30;;;;;;;9.51;39.29;100287.92;1662342;85;21723;-39
2022/10/31 14:44:04;;;;;;;3.17;1.10;;;;;;;9.33;39.85;100291.33;1662780;85;21075;-46
2022/10/31 14:46:58;;;;;;;1.40;0.80;;;;;;;9.16;40.51;100299.50;1634729;86;21033;-47
2022/10/31 14:50:00;;;;;;;1.95;1.20;;;;;;;8.99;41.09;100300.70;1645415;85;21560;-46
2022/10/31 14:52:27;;;;;;;3.65;1.85;;;;;;;8.84;41.64;100312.76;1637275;86;21082;-46
2022/10/31 14:54:56;;;;;;;3.83;1.35;;;;;;;8.70;41.96;100316.58;1646588;85;21657;-46
2022/10/31 14:57:27;;;;;;;2.80;1.25;;;;;;;8.59;42.34;100315.18;1658835;86;21100;-41
2022/10/31 15:00:04;;;;;;;2.08;1.27;;;;;;;8.50;42.73;100322.48;1630990;85;21197;-47
2022/10/31 15:02:38;;;;;;;3.20;1.30;;;;;;;8.41;43.13;100325.03;1641829;86;21034;-38
2022/10/31 15:05:09;;;;;;;1.92;1.20;;;;;;;8.32;43.38;100331.84;1626746;86;21130;-47
